Main page
METAR-TAF:

METAR-TAF

Airports :

Zahedan Airport

Zahedan, Iran

latitude: 29-28N, longitude: 060-53E, elevation: 1370 m

Current weather observation

The report was made 17 minutes ago, at 14:00 UTC
Wind 10 kt from the North
Temperature 35°C
Humidity 9%
Pressure 1007 hPa
Visibility 10 km or more
no clouds below 1500 m and no cumulonimbus

METAR: OIZH 181400Z 01010KT CAVOK 35/M03 Q1007 A2974 NOSIG

Time: 18:47 (14:17 UTC)

Forecast

The report was made 2 hours and 57 minutes ago, at 11:20 UTC
Forecast valid from 18 at 12 UTC to 19 at 18 UTC
Wind 10 kt from the North/Northeast
Visibility: 8000 m
Temporary
from 18 at 12 UTC to 18 at 15 UTC
Wind 17 kt from the East/Northeast
Visibility: 4000 m
sand
Temporary
from 19 at 09 UTC to 19 at 15 UTC
Wind 17 kt from the East/Northeast
Visibility: 4000 m
sand

TAF: OIZH 181120Z 1812/1918 03005MPS 8000 NSC TEMPO 1812/1815 06009MPS 4000 SA TEMPO 1909/1915 06009MPS 4000 SA

Weather observations and forecasts of more than 4000 airports (METAR and TAF reports).

The available stations are represented by yellow and red dots on the map.

Hover mouse over dot to see the name of the station.

Then click to see weather observations and forecasts.

To change the map : click on the green buttons with a black cross to zoom in, on the green button with a dash to zoom out, or on the green arrows for adjacent maps.


METAR-TAF: